Latest Weather Observations for Bairnsdale

IDV60801

Issued at 10:52 pm EDT Thursday 21 October 2021 (issued every 10 minutes, with the page automatically refreshed every 10 minutes)

About weather observations | Map of weather stations | Latest weather observations for VIC | Other Formats
Station Details ID: 085279 Name: BAIRNSDALE AIRPORT Lat: -37.88 Lon: 147.57 Height: 49.4 m
Data from the previous 72 hours. | See also: Recent months at Bairnsdale
Date/Time
EDT
Temp
°C
App
Temp
°C
Dew
Point
°C
Rel
Hum
%
Delta-T
°C
Wind Press
QNH
hPa
Press
MSL
hPa
Rain since
9am
mm
Dir  Spd
km/h
Gust
km/h
Spd
kts
Gust
kts
21/10:30pm 14.6 14.8 14.6 100 0.0 ENE 7 9 4 5 1015.4 1015.4 0.0
21/10:00pm 14.6 16.1 14.6 100 0.0 CALM 0 0 0 0 1015.3 1015.3 0.0
21/09:30pm 14.7 15.1 14.7 100 0.0 SE 6 7 3 4 1015.4 1015.4 0.0
21/09:00pm 14.9 15.2 14.9 100 0.0 S 7 7 4 4 1015.4 1015.4 0.0
21/08:30pm 14.9 15.1 14.6 98 0.2 SSE 7 7 4 4 1015.0 1015.0 0.0
21/08:00pm 16.3 16.5 15.7 96 0.4 SSE 9 11 5 6 1014.9 1014.9 0.0
21/07:30pm 17.2 17.0 15.7 91 0.9 SSE 11 11 6 6 1014.7 1014.7 0.0
21/07:00pm 18.5 18.4 16.1 86 1.4 ESE 11 13 6 7 1014.3 1014.3 0.0
21/06:30pm 18.7 17.5 16.1 85 1.6 E 17 20 9 11 1014.1 1014.1 0.0
21/06:00pm 19.5 18.0 16.3 82 1.9 E 19 24 10 13 1013.9 1013.9 0.0
21/05:30pm 19.7 16.8 16.0 79 2.2 E 26 32 14 17 1013.8 1013.8 0.0
21/05:00pm 20.7 18.0 15.7 73 3.0 E 24 32 13 17 1013.7 1013.7 0.0
21/04:30pm 20.9 18.8 16.1 74 2.9 E 22 28 12 15 1014.0 1014.0 0.0
21/04:00pm 21.5 19.9 16.5 73 3.0 E 20 28 11 15 1013.9 1013.9 0.0
21/03:30pm 21.3 19.6 15.8 71 3.3 ESE 19 24 10 13 1014.2 1014.2 0.0
21/03:00pm 20.6 20.0 15.6 73 3.0 ESE 13 19 7 10 1014.6 1014.6 0.0
21/02:30pm 20.6 19.7 15.8 74 2.9 ESE 15 20 8 11 1014.8 1014.8 0.0
21/02:00pm 20.9 19.8 16.3 75 2.8 ESE 17 20 9 11 1015.1 1015.1 0.0
21/01:30pm 20.8 19.4 15.6 72 3.1 ESE 17 20 9 11 1015.2 1015.2 0.0
21/01:00pm 20.8 20.2 14.7 68 3.6 ENE 11 17 6 9 1015.6 1015.6 0.0
21/12:30pm 20.7 19.3 13.4 63 4.2 ENE 13 20 7 11 1015.9 1015.9 0.0
21/12:00pm 20.2 19.6 14.6 70 3.3 E 11 17 6 9 1016.2 1016.2 0.0
21/11:30am 19.2 19.3 14.0 72 3.0 SE 6 11 3 6 1016.7 1016.7 0.0
21/11:00am 17.9 18.2 13.4 75 2.5 SE 4 7 2 4 1017.0 1017.0 0.0
21/10:30am 16.8 17.5 13.3 80 2.0 SE 2 6 1 3 1017.2 1017.2 0.0
21/10:00am 16.2 16.0 13.5 84 1.5 N 7 13 4 7 1017.4 1017.4 0.0
21/09:30am 15.3 14.6 13.2 87 1.2 ENE 9 11 5 6 1017.4 1017.4 0.0
21/09:00am 14.7 14.7 13.6 93 0.6 NE 6 9 3 5 1017.8 1017.8 0.2
21/08:30am 13.0 12.8 13.0 100 0.0 NNE 6 7 3 4 1017.8 1017.8 0.2
21/08:00am 11.0 10.2 11.0 100 0.0 WNW 6 7 3 4 1017.8 1017.8 0.2
21/07:30am 9.7 8.5 9.7 100 0.0 NW 6 7 3 4 1017.8 1017.8 0.2
21/07:04am 8.8 6.8 8.8 100 0.0 NW 9 9 5 5 1017.7 1017.7 0.2
21/07:00am 8.6 7.0 8.6 100 0.0 NW 7 9 4 5 1017.7 1017.7 0.2
21/06:30am 7.6 5.7 7.6 100 0.0 NW 7 9 4 5 1017.3 1017.3 0.2
21/06:00am 7.7 5.8 7.7 100 0.0 NW 7 9 4 5 1017.0 1017.0 0.2
21/05:30am 9.3 7.8 9.3 100 0.0 NNW 7 9 4 5 1017.1 1017.1 0.2
21/05:00am 9.4 8.2 9.4 100 0.0 NNW 6 7 3 4 1017.2 1017.2 0.2
21/04:51am 9.2 7.7 9.2 100 0.0 N 7 7 4 4 1017.1 1017.1 0.2
21/04:30am 11.1 9.8 11.1 100 0.0 NE 9 11 5 6 1017.0 1017.0 0.2
21/04:00am 11.8 9.5 11.8 100 0.0 ENE 15 19 8 10 1016.9 1016.9 0.2
21/03:30am 11.6 10.0 11.6 100 0.0 ENE 11 13 6 7 1017.0 1017.0 0.2
21/03:00am 11.9 10.4 11.9 100 0.0 ENE 11 13 6 7 1017.3 1017.3 0.2
21/02:30am 12.1 10.3 12.1 100 0.0 ENE 13 17 7 9 1017.7 1017.7 0.2
21/02:00am 12.3 10.9 12.3 100 0.0 ENE 11 13 6 7 1018.2 1018.2 0.2
21/01:30am 12.7 10.7 12.7 100 0.0 ENE 15 19 8 10 1018.7 1018.7 0.2
21/01:00am 12.6 10.6 12.6 100 0.0 ENE 15 19 8 10 1019.2 1019.2 0.2
21/12:30am 12.4 11.1 12.4 100 0.0 NE 11 15 6 8 1019.6 1019.6 0.2
21/12:00am 12.6 12.1 12.6 100 0.0 NNE 7 11 4 6 1019.9 1019.9 0.2
 
Date/Time
EDT
Temp
°C
App
Temp
°C
Dew
Point
°C
Rel
Hum
%
Delta-T
°C
Wind Press
QNH
hPa
Press
MSL
hPa
Rain since
9am
mm
Dir  Spd
km/h
Gust
km/h
Spd
kts
Gust
kts
20/11:30pm 12.9 11.3 12.9 100 0.0 ENE 13 19 7 10 1020.1 1020.1 0.2
20/11:12pm 13.2 11.0 13.2 100 0.0 ENE 17 20 9 11 1020.4 1020.4 0.2
20/11:00pm 13.2 11.4 13.2 100 0.0 ENE 15 20 8 11 1020.5 1020.5 0.2
20/10:30pm 13.9 11.5 13.9 100 0.0 ENE 19 24 10 13 1020.6 1020.6 0.2
20/10:25pm 13.9 11.5 13.9 100 0.0 ENE 19 26 10 14 1020.6 1020.6 0.2
20/10:00pm 13.9 10.9 13.7 99 0.1 ENE 22 28 12 15 1020.5 1020.5 0.2
20/09:30pm 14.0 10.3 13.8 99 0.1 E 26 37 14 20 1020.4 1020.4 0.2
20/09:00pm 14.2 9.4 13.9 98 0.2 E 32 39 17 21 1020.2 1020.2 0.2
20/08:39pm 14.2 9.4 14.0 99 0.1 E 32 39 17 21 1020.0 1020.0 0.2
20/08:30pm 14.2 9.4 13.9 98 0.2 E 32 43 17 23 1019.9 1019.9 0.2
20/08:19pm 14.3 9.5 14.0 98 0.2 E 32 41 17 22 1019.8 1019.8 0.2
20/08:00pm 14.4 9.6 13.9 97 0.3 E 32 46 17 25 1019.7 1019.7 0.2
20/07:30pm 14.6 9.2 13.8 95 0.4 E 35 46 19 25 1019.4 1019.4 0.2
20/07:00pm 14.9 9.1 13.8 93 0.6 E 37 48 20 26 1019.4 1019.4 0.2
20/06:48pm 15.0 9.6 13.9 93 0.6 E 35 50 19 27 1019.3 1019.3 0.2
20/06:30pm 15.3 10.3 14.0 92 0.7 E 33 44 18 24 1019.4 1019.4 0.2
20/06:00pm 15.7 10.7 13.9 89 1.0 E 33 43 18 23 1019.6 1019.6 0.2
20/05:58pm 15.8 10.4 13.8 88 1.1 E 35 43 19 23 1019.5 1019.5 0.2
20/05:30pm 16.0 9.6 13.3 84 1.5 E 39 50 21 27 1019.5 1019.5 0.2
20/05:00pm 16.5 10.2 13.4 82 1.7 E 39 46 21 25 1019.7 1019.7 0.2
20/04:30pm 17.1 11.3 13.8 81 1.9 E 37 46 20 25 1019.9 1019.9 0.2
20/04:00pm 17.2 11.7 13.5 79 2.1 E 35 46 19 25 1020.3 1020.3 0.2
20/03:30pm 17.3 12.4 14.2 82 1.8 ESE 33 46 18 25 1020.8 1020.8 0.2
20/03:00pm 17.6 13.2 14.1 80 2.0 ESE 30 43 16 23 1021.2 1021.2 0.2
20/02:30pm 17.6 12.2 13.9 79 2.1 E 35 44 19 24 1021.4 1021.4 0.2
20/02:00pm 17.6 12.6 14.1 80 2.0 E 33 41 18 22 1021.5 1021.5 0.2
20/01:30pm 17.9 13.2 14.4 80 2.0 E 32 41 17 22 1021.8 1021.8 0.2
20/01:00pm 16.4 12.1 13.1 81 1.8 E 28 39 15 21 1022.2 1022.2 0.2
20/12:30pm 17.6 12.9 14.3 81 1.9 E 32 39 17 21 1022.4 1022.4 0.2
20/12:00pm 16.8 12.6 13.5 81 1.9 E 28 39 15 21 1023.0 1023.0 0.2
20/11:30am 17.0 12.6 12.9 77 2.3 E 28 39 15 21 1023.4 1023.4 0.0
20/11:00am 16.2 12.7 13.5 84 1.5 E 24 30 13 16 1023.9 1023.9 0.0
20/10:30am 16.6 13.1 13.3 81 1.9 E 24 32 13 17 1024.0 1024.0 0.0
20/10:00am 15.6 12.4 13.1 85 1.4 ESE 22 28 12 15 1024.2 1024.2 0.0
20/09:30am 14.9 10.9 13.1 89 1.0 ESE 26 35 14 19 1024.2 1024.2 0.0
20/09:00am 14.5 10.7 12.5 88 1.1 E 24 30 13 16 1024.4 1024.4 1.8
20/08:30am 14.0 11.1 12.9 93 0.6 E 20 26 11 14 1024.7 1024.7 1.8
20/08:00am 13.7 11.3 12.8 94 0.5 ESE 17 28 9 15 1024.7 1024.7 1.8
20/07:30am 13.0 10.2 12.5 97 0.3 E 19 22 10 12 1024.3 1024.3 1.8
20/07:00am 12.6 10.1 12.3 98 0.2 ESE 17 22 9 12 1024.4 1024.4 1.8
20/06:30am 12.5 10.4 12.3 99 0.1 ESE 15 20 8 11 1024.1 1024.1 1.8
20/06:00am 12.1 10.2 11.9 99 0.1 ESE 13 17 7 9 1024.1 1024.1 1.8
20/05:30am 12.2 10.0 12.0 99 0.1 ESE 15 19 8 10 1023.9 1023.9 1.8
20/05:00am 12.5 10.2 11.9 96 0.3 ESE 15 20 8 11 1023.9 1023.9 1.8
20/04:47am 12.6 10.0 12.0 96 0.3 ESE 17 26 9 14 1023.9 1023.9 1.8
20/04:30am 12.6 10.5 12.3 98 0.2 ESE 15 24 8 13 1023.9 1023.9 1.8
20/04:29am 12.6 10.5 12.3 98 0.2 ESE 15 24 8 13 1023.9 1023.9 1.8
20/04:00am 12.7 9.1 11.9 95 0.4 SE 22 30 12 16 1023.8 1023.8 1.8
20/03:30am 12.8 10.2 12.0 95 0.4 SE 17 26 9 14 1024.0 1024.0 1.8
20/03:00am 12.7 10.1 12.1 96 0.3 SE 17 22 9 12 1023.9 1023.9 1.8
20/02:30am 12.7 9.8 12.2 97 0.3 SE 19 28 10 15 1024.2 1024.2 1.8
20/02:03am 12.3 9.1 11.8 97 0.3 SE 20 28 11 15 1024.6 1024.6 1.8
20/02:00am 12.2 8.9 11.7 97 0.3 SE 20 28 11 15 1024.6 1024.6 1.8
20/01:57am 12.1 8.8 11.6 97 0.3 SE 20 28 11 15 1024.7 1024.7 1.8
20/01:47am 12.6 9.2 12.4 99 0.1 SE 22 30 12 16 1024.7 1024.7 1.8
20/01:44am 12.7 9.3 12.5 99 0.1 SE 22 30 12 16 1024.7 1024.7 1.6
20/01:30am 12.7 9.8 12.4 98 0.2 SSE 19 26 10 14 1024.8 1024.8 1.4
20/01:00am 13.0 10.4 12.1 94 0.5 SE 17 26 9 14 1025.0 1025.0 1.4
20/12:30am 13.1 10.1 12.0 93 0.6 SE 19 24 10 13 1024.9 1024.9 1.4
20/12:00am 13.1 10.7 12.6 97 0.3 SE 17 28 9 15 1024.5 1024.5 1.4
 
Date/Time
EDT
Temp
°C
App
Temp
°C
Dew
Point
°C
Rel
Hum
%
Delta-T
°C
Wind Press
QNH
hPa
Press
MSL
hPa
Rain since
9am
mm
Dir  Spd
km/h
Gust
km/h
Spd
kts
Gust
kts
19/11:30pm 12.8 11.1 12.6 99 0.1 ESE 13 15 7 8 1024.2 1024.2 1.4
19/11:00pm 12.4 10.6 12.2 99 0.1 ESE 13 19 7 10 1024.1 1024.1 1.4
19/10:30pm 12.7 11.0 12.5 99 0.1 ESE 13 19 7 10 1024.1 1024.1 1.4
19/10:00pm 12.9 10.9 12.7 99 0.1 ESE 15 19 8 10 1024.2 1024.2 1.4
19/09:30pm 12.7 11.1 12.7 100 0.0 SE 13 17 7 9 1024.5 1024.5 1.4
19/09:00pm 12.6 11.3 12.6 100 0.0 SE 11 17 6 9 1024.1 1024.1 1.4
19/08:45pm 12.3 9.8 12.3 100 0.0 SE 17 22 9 12 1024.0 1024.0 1.4
19/08:30pm 12.1 9.0 12.1 100 0.0 ESE 20 26 11 14 1023.8 1023.8 1.4
19/08:08pm 12.3 9.2 12.3 100 0.0 SE 20 32 11 17 1023.5 1023.5 1.0
19/08:00pm 12.1 9.5 12.1 100 0.0 SE 17 24 9 13 1023.6 1023.6 1.0
19/07:59pm 12.0 9.4 12.0 100 0.0 SE 17 24 9 13 1023.5 1023.5 1.0
19/07:56pm 12.0 9.0 12.0 100 0.0 SE 19 22 10 12 1023.5 1023.5 1.0
19/07:44pm 12.0 7.6 11.8 99 0.1 SE 26 35 14 19 1023.6 1023.6 1.0
19/07:30pm 12.7 9.7 12.5 99 0.1 SE 20 28 11 15 1023.3 1023.3 0.8
19/07:00pm 12.8 9.9 12.8 100 0.0 SE 20 28 11 15 1023.1 1023.1 0.8
19/06:53pm 12.8 10.4 12.8 100 0.0 SE 17 28 9 15 1023.1 1023.1 0.8
19/06:30pm 12.7 9.7 12.7 100 0.0 SSE 20 26 11 14 1023.0 1023.0 0.4
19/06:29pm 12.6 9.6 12.6 100 0.0 SSE 20 30 11 16 1022.9 1022.9 0.4
19/06:20pm 12.6 9.1 12.3 98 0.2 SE 22 32 12 17 1022.8 1022.8 0.0
19/06:00pm 13.4 9.3 11.5 88 1.0 SE 24 33 13 18 1022.6 1022.6 0.0
19/05:30pm 14.1 9.9 11.1 82 1.6 SSE 24 32 13 17 1022.6 1022.6 0.0
19/05:00pm 14.5 10.9 10.7 78 2.0 SSE 20 28 11 15 1022.3 1022.3 0.0
19/04:30pm 15.5 12.1 11.1 75 2.4 SSE 20 32 11 17 1022.0 1022.0 0.0
19/04:00pm 15.4 11.3 8.6 64 3.4 SSE 20 32 11 17 1021.8 1021.8 0.0
19/03:30pm 15.5 11.4 10.1 70 2.8 SSE 22 30 12 16 1021.7 1021.7 0.0
19/03:00pm 15.7 11.5 9.6 67 3.2 SSE 22 30 12 16 1021.7 1021.7 0.0
19/02:30pm 16.0 12.3 10.3 69 3.0 SSE 20 28 11 15 1021.3 1021.3 0.0
19/02:00pm 15.3 11.5 9.7 69 2.9 S 20 26 11 14 1021.1 1021.1 0.0
19/01:30pm 15.8 11.8 10.6 71 2.8 S 22 28 12 15 1020.9 1020.9 0.0
19/01:00pm 15.7 11.9 11.3 75 2.4 S 22 30 12 16 1020.7 1020.7 0.0
19/12:30pm 15.6 11.2 11.6 77 2.2 SSW 26 37 14 20 1020.7 1020.7 0.0
19/12:00pm 14.9 11.4 10.9 77 2.1 SW 20 30 11 16 1020.6 1020.6 0.0
19/11:30am 13.3 10.1 10.1 81 1.7 WSW 17 24 9 13 1021.0 1021.0 0.0
19/11:00am 13.4 10.5 10.9 85 1.3 W 17 24 9 13 1021.1 1021.1 0.0
19/10:30am 12.9 9.7 10.1 83 1.4 W 17 24 9 13 1021.0 1021.0 0.0
19/10:00am 13.2 9.5 10.2 82 1.5 W 20 28 11 15 1020.9 1020.9 0.0
19/09:30am 12.9 9.4 10.8 87 1.1 W 20 28 11 15 1020.8 1020.8 0.0
19/09:00am 12.3 8.8 11.0 92 0.7 W 20 26 11 14 1020.6 1020.6 8.4
19/08:30am 11.3 7.7 10.5 95 0.4 W 20 28 11 15 1020.3 1020.3 8.4
19/08:00am 10.4 6.9 10.1 98 0.2 W 19 24 10 13 1020.0 1020.0 8.4
19/07:30am 9.4 6.0 9.3 99 0.0 W 17 22 9 12 1019.6 1019.6 8.4
19/07:00am 8.7 5.9 8.7 100 0.0 WNW 13 19 7 10 1019.3 1019.3 8.4
19/06:30am 8.6 5.8 8.6 100 0.0 WNW 13 17 7 9 1019.1 1019.1 8.4
19/06:00am 8.9 6.2 8.9 100 0.0 WNW 13 17 7 9 1018.9 1018.9 8.4
19/05:30am 9.1 6.4 9.1 100 0.0 WNW 13 17 7 9 1018.5 1018.5 8.4
19/05:00am 9.4 6.8 9.4 100 0.0 WNW 13 19 7 10 1018.3 1018.3 8.4
19/04:30am 9.9 7.8 9.9 100 0.0 W 11 17 6 9 1018.1 1018.1 8.4
19/04:00am 9.9 7.8 9.9 100 0.0 W 11 15 6 8 1017.8 1017.8 8.4
19/03:30am 10.0 7.6 10.0 100 0.0 W 13 20 7 11 1017.6 1017.6 8.4
19/03:19am 10.0 8.3 10.0 100 0.0 W 9 11 5 6 1017.6 1017.6 8.4
19/03:07am 10.0 8.0 10.0 100 0.0 SW 11 17 6 9 1017.5 1017.5 8.4
19/03:04am 10.1 8.1 10.1 100 0.0 SW 11 17 6 9 1017.5 1017.5 8.4
19/03:00am 10.1 8.1 10.1 100 0.0 SW 11 17 6 9 1017.5 1017.5 8.4
19/02:47am 10.3 8.0 10.3 100 0.0 W 13 20 7 11 1017.9 1017.9 8.0
19/02:30am 10.3 8.7 10.3 100 0.0 WNW 9 11 5 6 1018.0 1018.0 8.0
19/02:00am 10.2 8.6 10.2 100 0.0 W 9 11 5 6 1017.9 1017.9 8.0
19/01:30am 10.3 8.7 10.3 100 0.0 NW 9 11 5 6 1018.1 1018.1 8.0
19/01:00am 10.2 8.6 10.2 100 0.0 NW 9 11 5 6 1017.7 1017.7 8.0
19/12:30am 10.3 8.7 10.3 100 0.0 WNW 9 9 5 5 1017.5 1017.5 8.0
19/12:00am 10.3 9.3 10.3 100 0.0 WNW 6 9 3 5 1017.5 1017.5 8.0
 
Date/Time
EDT
Temp
°C
App
Temp
°C
Dew
Point
°C
Rel
Hum
%
Delta-T
°C
Wind Press
QNH
hPa
Press
MSL
hPa
Rain since
9am
mm
Dir  Spd
km/h
Gust
km/h
Spd
kts
Gust
kts
18/11:30pm 10.5 9.0 10.5 100 0.0 W 9 13 5 7 1017.3 1017.3 7.4
18/11:00pm 10.8 9.7 10.8 100 0.0 WNW 7 13 4 7 1017.5 1017.5 6.0

Other formats

Comma delimited format used in spreadsheet applications
http://www.bom.gov.au/fwo/IDV60801/IDV60801.94912.axf

JavaScript Object Notation format (JSON) in row-major order
http://www.bom.gov.au/fwo/IDV60801/IDV60801.94912.json

Data quality

Most of these data are generated automatically and are frequently updated. Quality checks on data are not normally performed. It is possible for incorrect values to appear. Refer to information at About Latest Weather Observations and please check the disclaimer before using these data.